sensor_id;sensor_type;location;lat;lon;timestamp;temperature;humidity
31003;DHT22;23051;-6.372;106.786;2023-08-12T00:00:10;26.90;73.20
31003;DHT22;23051;-6.372;106.786;2023-08-12T00:02:12;26.90;73.20
31003;DHT22;23051;-6.372;106.786;2023-08-12T00:04:13;26.90;73.10
31003;DHT22;23051;-6.372;106.786;2023-08-12T00:06:15;26.90;73.10
31003;DHT22;23051;-6.372;106.786;2023-08-12T00:08:17;26.90;73.10
31003;DHT22;23051;-6.372;106.786;2023-08-12T00:10:20;26.90;73.00
31003;DHT22;23051;-6.372;106.786;2023-08-12T00:12:21;26.90;72.90
31003;DHT22;23051;-6.372;106.786;2023-08-12T00:14:23;27.00;73.00
31003;DHT22;23051;-6.372;106.786;2023-08-12T00:16:24;27.00;72.90
31003;DHT22;23051;-6.372;106.786;2023-08-12T00:18:31;27.00;72.80
31003;DHT22;23051;-6.372;106.786;2023-08-12T00:20:37;27.00;72.70
31003;DHT22;23051;-6.372;106.786;2023-08-12T00:22:38;27.10;72.70
31003;DHT22;23051;-6.372;106.786;2023-08-12T00:24:40;27.10;72.60
31003;DHT22;23051;-6.372;106.786;2023-08-12T00:26:41;27.10;72.50
31003;DHT22;23051;-6.372;106.786;2023-08-12T00:28:48;27.20;72.50
31003;DHT22;23051;-6.372;106.786;2023-08-12T00:30:49;27.20;72.40
31003;DHT22;23051;-6.372;106.786;2023-08-12T00:32:50;27.20;72.20
31003;DHT22;23051;-6.372;106.786;2023-08-12T00:34:53;27.30;72.20
31003;DHT22;23051;-6.372;106.786;2023-08-12T00:36:55;27.30;72.10
31003;DHT22;23051;-6.372;106.786;2023-08-12T00:38:56;27.40;72.90
31003;DHT22;23051;-6.372;106.786;2023-08-12T00:40:57;27.40;72.00
31003;DHT22;23051;-6.372;106.786;2023-08-12T00:43:07;27.40;72.00
31003;DHT22;23051;-6.372;106.786;2023-08-12T00:45:10;27.40;71.80
31003;DHT22;23051;-6.372;106.786;2023-08-12T00:47:14;27.50;71.90
31003;DHT22;23051;-6.372;106.786;2023-08-12T00:49:16;27.50;71.80
31003;DHT22;23051;-6.372;106.786;2023-08-12T00:51:26;27.50;71.70
31003;DHT22;23051;-6.372;106.786;2023-08-12T00:56:16;27.60;71.60
31003;DHT22;23051;-6.372;106.786;2023-08-12T00:58:20;27.70;71.40
31003;DHT22;23051;-6.372;106.786;2023-08-12T01:00:21;27.70;71.30
31003;DHT22;23051;-6.372;106.786;2023-08-12T01:02:23;27.80;71.30
31003;DHT22;23051;-6.372;106.786;2023-08-12T01:04:24;27.80;71.20
31003;DHT22;23051;-6.372;106.786;2023-08-12T01:06:25;27.90;71.10
31003;DHT22;23051;-6.372;106.786;2023-08-12T01:08:30;27.90;71.00
31003;DHT22;23051;-6.372;106.786;2023-08-12T01:10:33;28.00;71.80
31003;DHT22;23051;-6.372;106.786;2023-08-12T01:12:37;28.00;70.80
31003;DHT22;23051;-6.372;106.786;2023-08-12T01:16:45;28.10;70.70
31003;DHT22;23051;-6.372;106.786;2023-08-12T01:18:50;28.10;70.60
31003;DHT22;23051;-6.372;106.786;2023-08-12T01:20:51;28.20;70.60
31003;DHT22;23051;-6.372;106.786;2023-08-12T01:22:56;28.20;70.40
31003;DHT22;23051;-6.372;106.786;2023-08-12T01:24:58;28.30;70.40
31003;DHT22;23051;-6.372;106.786;2023-08-12T01:27:01;28.30;70.30
31003;DHT22;23051;-6.372;106.786;2023-08-12T01:29:05;28.40;70.30
31003;DHT22;23051;-6.372;106.786;2023-08-12T01:33:22;28.50;70.10
31003;DHT22;23051;-6.372;106.786;2023-08-12T01:35:30;28.50;70.00
31003;DHT22;23051;-6.372;106.786;2023-08-12T01:37:33;28.50;69.90
31003;DHT22;23051;-6.372;106.786;2023-08-12T01:39:38;28.60;69.90
31003;DHT22;23051;-6.372;106.786;2023-08-12T01:41:40;28.60;69.90
31003;DHT22;23051;-6.372;106.786;2023-08-12T01:43:41;28.70;69.90
31003;DHT22;23051;-6.372;106.786;2023-08-12T01:45:45;28.70;69.80
31003;DHT22;23051;-6.372;106.786;2023-08-12T01:47:49;28.70;69.70
31003;DHT22;23051;-6.372;106.786;2023-08-12T01:49:51;28.70;69.70
31003;DHT22;23051;-6.372;106.786;2023-08-12T01:51:55;28.80;69.70
31003;DHT22;23051;-6.372;106.786;2023-08-12T01:53:56;28.90;69.60
31003;DHT22;23051;-6.372;106.786;2023-08-12T01:55:57;28.90;69.40
31003;DHT22;23051;-6.372;106.786;2023-08-12T01:57:58;29.00;69.40
31003;DHT22;23051;-6.372;106.786;2023-08-12T02:00:00;29.10;69.30
31003;DHT22;23051;-6.372;106.786;2023-08-12T02:02:02;29.10;69.20
31003;DHT22;23051;-6.372;106.786;2023-08-12T02:04:08;29.10;69.10
31003;DHT22;23051;-6.372;106.786;2023-08-12T02:06:11;29.20;69.10
31003;DHT22;23051;-6.372;106.786;2023-08-12T02:08:15;29.20;69.00
31003;DHT22;23051;-6.372;106.786;2023-08-12T02:10:16;29.20;68.90
31003;DHT22;23051;-6.372;106.786;2023-08-12T02:12:20;29.30;68.90
31003;DHT22;23051;-6.372;106.786;2023-08-12T02:16:24;29.40;68.80
31003;DHT22;23051;-6.372;106.786;2023-08-12T02:18:25;29.40;68.80
31003;DHT22;23051;-6.372;106.786;2023-08-12T02:20:28;29.40;68.70
31003;DHT22;23051;-6.372;106.786;2023-08-12T02:22:30;29.40;68.70
31003;DHT22;23051;-6.372;106.786;2023-08-12T02:24:34;29.50;68.60
31003;DHT22;23051;-6.372;106.786;2023-08-12T02:26:35;29.50;68.50
31003;DHT22;23051;-6.372;106.786;2023-08-12T02:28:36;29.60;68.50
31003;DHT22;23051;-6.372;106.786;2023-08-12T02:30:41;29.70;68.50
31003;DHT22;23051;-6.372;106.786;2023-08-12T02:32:42;29.70;68.40
31003;DHT22;23051;-6.372;106.786;2023-08-12T02:34:44;29.80;68.30
31003;DHT22;23051;-6.372;106.786;2023-08-12T02:42:10;29.90;68.00
31003;DHT22;23051;-6.372;106.786;2023-08-12T02:44:12;30.00;67.90
31003;DHT22;23051;-6.372;106.786;2023-08-12T02:46:34;30.00;67.80
31003;DHT22;23051;-6.372;106.786;2023-08-12T02:48:35;30.10;68.70
31003;DHT22;23051;-6.372;106.786;2023-08-12T02:50:37;30.10;67.80
31003;DHT22;23051;-6.372;106.786;2023-08-12T02:52:41;30.20;67.80
31003;DHT22;23051;-6.372;106.786;2023-08-12T02:54:42;30.20;67.60
31003;DHT22;23051;-6.372;106.786;2023-08-12T02:56:45;30.20;67.60
31003;DHT22;23051;-6.372;106.786;2023-08-12T02:58:48;30.30;67.60
31003;DHT22;23051;-6.372;106.786;2023-08-12T03:00:54;30.30;67.60
31003;DHT22;23051;-6.372;106.786;2023-08-12T03:02:55;30.30;67.60
31003;DHT22;23051;-6.372;106.786;2023-08-12T03:04:56;30.30;67.60
31003;DHT22;23051;-6.372;106.786;2023-08-12T03:06:57;30.30;67.60
31003;DHT22;23051;-6.372;106.786;2023-08-12T03:08:58;30.30;67.50
31003;DHT22;23051;-6.372;106.786;2023-08-12T03:11:00;30.40;67.50
31003;DHT22;23051;-6.372;106.786;2023-08-12T03:13:04;30.40;67.40
31003;DHT22;23051;-6.372;106.786;2023-08-12T03:15:06;30.40;67.40
31003;DHT22;23051;-6.372;106.786;2023-08-12T03:17:07;30.40;67.40
31003;DHT22;23051;-6.372;106.786;2023-08-12T03:19:08;30.50;67.50
31003;DHT22;23051;-6.372;106.786;2023-08-12T03:21:12;30.50;67.40
31003;DHT22;23051;-6.372;106.786;2023-08-12T03:23:15;30.50;67.30
31003;DHT22;23051;-6.372;106.786;2023-08-12T03:25:16;30.60;67.30
31003;DHT22;23051;-6.372;106.786;2023-08-12T03:27:18;30.70;67.20
31003;DHT22;23051;-6.372;106.786;2023-08-12T03:29:19;30.70;67.10
31003;DHT22;23051;-6.372;106.786;2023-08-12T03:31:22;30.80;67.10
31003;DHT22;23051;-6.372;106.786;2023-08-12T03:33:23;30.80;67.00
31003;DHT22;23051;-6.372;106.786;2023-08-12T03:35:25;30.90;66.90
31003;DHT22;23051;-6.372;106.786;2023-08-12T03:37:28;30.90;66.70
31003;DHT22;23051;-6.372;106.786;2023-08-12T03:39:29;31.00;66.60
31003;DHT22;23051;-6.372;106.786;2023-08-12T03:41:30;31.10;66.60
31003;DHT22;23051;-6.372;106.786;2023-08-12T03:43:31;31.00;66.50
31003;DHT22;23051;-6.372;106.786;2023-08-12T03:47:37;31.00;66.70
31003;DHT22;23051;-6.372;106.786;2023-08-12T03:49:39;31.00;66.70
31003;DHT22;23051;-6.372;106.786;2023-08-12T03:51:40;31.00;66.80
31003;DHT22;23051;-6.372;106.786;2023-08-12T03:53:43;31.00;66.70
31003;DHT22;23051;-6.372;106.786;2023-08-12T03:55:44;31.10;66.70
31003;DHT22;23051;-6.372;106.786;2023-08-12T03:57:47;31.10;66.60
31003;DHT22;23051;-6.372;106.786;2023-08-12T03:59:51;31.10;66.50
31003;DHT22;23051;-6.372;106.786;2023-08-12T04:01:57;31.30;66.50
31003;DHT22;23051;-6.372;106.786;2023-08-12T04:03:58;31.30;66.30
31003;DHT22;23051;-6.372;106.786;2023-08-12T04:06:02;31.40;66.30
31003;DHT22;23051;-6.372;106.786;2023-08-12T04:08:03;31.40;66.10
31003;DHT22;23051;-6.372;106.786;2023-08-12T04:10:05;31.40;66.10
31003;DHT22;23051;-6.372;106.786;2023-08-12T04:12:09;31.50;66.10
31003;DHT22;23051;-6.372;106.786;2023-08-12T04:14:10;31.50;66.00
31003;DHT22;23051;-6.372;106.786;2023-08-12T04:16:12;31.60;66.00
31003;DHT22;23051;-6.372;106.786;2023-08-12T04:18:13;31.60;65.90
31003;DHT22;23051;-6.372;106.786;2023-08-12T04:20:17;31.60;65.80
31003;DHT22;23051;-6.372;106.786;2023-08-12T04:22:18;31.70;65.90
31003;DHT22;23051;-6.372;106.786;2023-08-12T04:24:20;31.60;65.80
31003;DHT22;23051;-6.372;106.786;2023-08-12T04:26:21;31.60;65.90
31003;DHT22;23051;-6.372;106.786;2023-08-12T04:28:28;31.60;66.00
31003;DHT22;23051;-6.372;106.786;2023-08-12T04:30:29;31.60;66.00
31003;DHT22;23051;-6.372;106.786;2023-08-12T04:32:34;31.60;66.10
31003;DHT22;23051;-6.372;106.786;2023-08-12T04:34:35;31.60;66.20
31003;DHT22;23051;-6.372;106.786;2023-08-12T04:36:36;31.50;66.10
31003;DHT22;23051;-6.372;106.786;2023-08-12T04:38:37;31.50;66.20
31003;DHT22;23051;-6.372;106.786;2023-08-12T04:40:40;31.50;66.30
31003;DHT22;23051;-6.372;106.786;2023-08-12T04:42:41;31.50;66.40
31003;DHT22;23051;-6.372;106.786;2023-08-12T04:44:43;31.50;66.40
31003;DHT22;23051;-6.372;106.786;2023-08-12T04:46:44;31.50;66.40
31003;DHT22;23051;-6.372;106.786;2023-08-12T04:48:45;31.50;66.40
31003;DHT22;23051;-6.372;106.786;2023-08-12T04:50:57;31.50;66.50
31003;DHT22;23051;-6.372;106.786;2023-08-12T04:53:08;31.50;66.50
31003;DHT22;23051;-6.372;106.786;2023-08-12T04:57:36;31.70;66.10
31003;DHT22;23051;-6.372;106.786;2023-08-12T04:59:55;31.80;66.00
31003;DHT22;23051;-6.372;106.786;2023-08-12T05:01:56;31.80;65.70
31003;DHT22;23051;-6.372;106.786;2023-08-12T05:03:58;31.90;65.70
31003;DHT22;23051;-6.372;106.786;2023-08-12T05:05:59;32.00;65.70
31003;DHT22;23051;-6.372;106.786;2023-08-12T05:08:00;32.00;65.50
31003;DHT22;23051;-6.372;106.786;2023-08-12T05:10:04;32.10;65.50
31003;DHT22;23051;-6.372;106.786;2023-08-12T05:12:05;32.10;65.50
31003;DHT22;23051;-6.372;106.786;2023-08-12T05:16:23;32.20;65.40
31003;DHT22;23051;-6.372;106.786;2023-08-12T05:18:30;32.20;65.30
31003;DHT22;23051;-6.372;106.786;2023-08-12T05:20:34;32.30;65.30
31003;DHT22;23051;-6.372;106.786;2023-08-12T05:22:38;32.40;65.00
31003;DHT22;23051;-6.372;106.786;2023-08-12T05:24:39;32.50;64.80
31003;DHT22;23051;-6.372;106.786;2023-08-12T05:26:40;32.60;64.70
31003;DHT22;23051;-6.372;106.786;2023-08-12T05:28:41;32.70;64.60
31003;DHT22;23051;-6.372;106.786;2023-08-12T05:30:42;32.70;64.40
31003;DHT22;23051;-6.372;106.786;2023-08-12T05:32:44;32.80;64.40
31003;DHT22;23051;-6.372;106.786;2023-08-12T05:34:45;32.80;64.30
31003;DHT22;23051;-6.372;106.786;2023-08-12T05:36:46;32.90;64.30
31003;DHT22;23051;-6.372;106.786;2023-08-12T05:38:47;32.90;64.30
31003;DHT22;23051;-6.372;106.786;2023-08-12T05:40:48;32.90;64.30
31003;DHT22;23051;-6.372;106.786;2023-08-12T05:42:49;32.90;64.30
31003;DHT22;23051;-6.372;106.786;2023-08-12T05:44:53;33.00;64.30
31003;DHT22;23051;-6.372;106.786;2023-08-12T05:46:54;33.10;64.20
31003;DHT22;23051;-6.372;106.786;2023-08-12T05:48:55;33.10;64.00
31003;DHT22;23051;-6.372;106.786;2023-08-12T05:50:56;33.20;63.90
31003;DHT22;23051;-6.372;106.786;2023-08-12T05:52:57;33.20;63.70
31003;DHT22;23051;-6.372;106.786;2023-08-12T05:55:01;33.30;63.70
31003;DHT22;23051;-6.372;106.786;2023-08-12T05:57:02;33.30;63.60
31003;DHT22;23051;-6.372;106.786;2023-08-12T05:59:03;33.40;63.60
31003;DHT22;23051;-6.372;106.786;2023-08-12T06:01:05;33.40;63.60
31003;DHT22;23051;-6.372;106.786;2023-08-12T06:03:06;33.50;63.50
31003;DHT22;23051;-6.372;106.786;2023-08-12T06:05:08;33.50;63.30
31003;DHT22;23051;-6.372;106.786;2023-08-12T06:07:09;33.60;63.20
31003;DHT22;23051;-6.372;106.786;2023-08-12T06:09:12;33.60;63.00
31003;DHT22;23051;-6.372;106.786;2023-08-12T06:11:13;33.80;63.00
31003;DHT22;23051;-6.372;106.786;2023-08-12T06:13:14;33.90;62.80
31003;DHT22;23051;-6.372;106.786;2023-08-12T06:15:16;34.00;62.50
31003;DHT22;23051;-6.372;106.786;2023-08-12T06:17:17;34.10;62.30
31003;DHT22;23051;-6.372;106.786;2023-08-12T06:19:18;34.10;62.30
31003;DHT22;23051;-6.372;106.786;2023-08-12T06:21:21;34.00;62.50
31003;DHT22;23051;-6.372;106.786;2023-08-12T06:23:22;33.90;62.70
31003;DHT22;23051;-6.372;106.786;2023-08-12T06:25:23;34.00;62.80
31003;DHT22;23051;-6.372;106.786;2023-08-12T06:27:24;33.90;62.80
31003;DHT22;23051;-6.372;106.786;2023-08-12T06:29:25;33.90;62.80
31003;DHT22;23051;-6.372;106.786;2023-08-12T06:33:49;33.90;63.00
31003;DHT22;23051;-6.372;106.786;2023-08-12T06:35:51;33.90;63.10
31003;DHT22;23051;-6.372;106.786;2023-08-12T06:37:52;33.90;63.00
31003;DHT22;23051;-6.372;106.786;2023-08-12T06:39:53;33.90;62.90
31003;DHT22;23051;-6.372;106.786;2023-08-12T06:41:56;34.00;62.90
31003;DHT22;23051;-6.372;106.786;2023-08-12T06:44:02;34.10;62.70
31003;DHT22;23051;-6.372;106.786;2023-08-12T06:46:04;34.20;62.60
31003;DHT22;23051;-6.372;106.786;2023-08-12T06:48:05;34.30;62.40
31003;DHT22;23051;-6.372;106.786;2023-08-12T06:50:09;34.40;62.10
31003;DHT22;23051;-6.372;106.786;2023-08-12T06:52:10;34.60;62.00
31003;DHT22;23051;-6.372;106.786;2023-08-12T06:54:12;34.60;61.70
31003;DHT22;23051;-6.372;106.786;2023-08-12T06:58:22;34.80;61.40
31003;DHT22;23051;-6.372;106.786;2023-08-12T07:00:23;34.90;61.30
31003;DHT22;23051;-6.372;106.786;2023-08-12T07:02:25;34.90;61.30
31003;DHT22;23051;-6.372;106.786;2023-08-12T07:04:26;34.90;61.40
31003;DHT22;23051;-6.372;106.786;2023-08-12T07:06:27;34.90;61.50
31003;DHT22;23051;-6.372;106.786;2023-08-12T07:08:28;34.80;61.60
31003;DHT22;23051;-6.372;106.786;2023-08-12T07:10:29;34.70;61.90
31003;DHT22;23051;-6.372;106.786;2023-08-12T07:12:31;34.60;62.00
31003;DHT22;23051;-6.372;106.786;2023-08-12T07:14:32;34.50;62.20
31003;DHT22;23051;-6.372;106.786;2023-08-12T07:16:43;34.60;62.40
31003;DHT22;23051;-6.372;106.786;2023-08-12T07:18:44;34.70;62.20
31003;DHT22;23051;-6.372;106.786;2023-08-12T07:20:46;34.80;62.00
31003;DHT22;23051;-6.372;106.786;2023-08-12T07:23:00;34.90;61.80
31003;DHT22;23051;-6.372;106.786;2023-08-12T07:27:22;35.10;61.50
31003;DHT22;23051;-6.372;106.786;2023-08-12T07:29:28;35.20;61.10
31003;DHT22;23051;-6.372;106.786;2023-08-12T07:31:29;35.50;60.90
31003;DHT22;23051;-6.372;106.786;2023-08-12T07:33:30;35.60;60.50
31003;DHT22;23051;-6.372;106.786;2023-08-12T07:35:31;35.70;60.20
31003;DHT22;23051;-6.372;106.786;2023-08-12T07:37:33;35.80;60.10
31003;DHT22;23051;-6.372;106.786;2023-08-12T07:41:59;36.00;59.80
31003;DHT22;23051;-6.372;106.786;2023-08-12T07:44:00;36.20;59.70
31003;DHT22;23051;-6.372;106.786;2023-08-12T07:46:06;36.30;59.50
31003;DHT22;23051;-6.372;106.786;2023-08-12T07:50:08;36.30;59.40
31003;DHT22;23051;-6.372;106.786;2023-08-12T07:52:11;36.20;59.70
31003;DHT22;23051;-6.372;106.786;2023-08-12T07:54:12;35.90;60.00
31003;DHT22;23051;-6.372;106.786;2023-08-12T07:56:13;35.80;60.50
31003;DHT22;23051;-6.372;106.786;2023-08-12T07:58:18;35.70;60.80
31003;DHT22;23051;-6.372;106.786;2023-08-12T08:00:19;35.50;61.20
31003;DHT22;23051;-6.372;106.786;2023-08-12T08:02:20;35.30;61.60
31003;DHT22;23051;-6.372;106.786;2023-08-12T08:04:22;35.10;62.00
31003;DHT22;23051;-6.372;106.786;2023-08-12T08:06:23;35.00;62.30
31003;DHT22;23051;-6.372;106.786;2023-08-12T08:08:24;34.90;62.40
31003;DHT22;23051;-6.372;106.786;2023-08-12T08:10:27;34.80;62.70
31003;DHT22;23051;-6.372;106.786;2023-08-12T08:12:31;34.70;62.70
31003;DHT22;23051;-6.372;106.786;2023-08-12T08:14:32;34.70;62.80
31003;DHT22;23051;-6.372;106.786;2023-08-12T08:16:33;34.70;62.70
31003;DHT22;23051;-6.372;106.786;2023-08-12T08:18:34;34.80;62.80
31003;DHT22;23051;-6.372;106.786;2023-08-12T08:20:39;34.80;62.60
31003;DHT22;23051;-6.372;106.786;2023-08-12T08:22:52;35.00;62.30
31003;DHT22;23051;-6.372;106.786;2023-08-12T08:24:54;35.00;62.00
31003;DHT22;23051;-6.372;106.786;2023-08-12T08:27:01;34.90;62.10
31003;DHT22;23051;-6.372;106.786;2023-08-12T08:29:05;34.90;62.30
31003;DHT22;23051;-6.372;106.786;2023-08-12T08:35:12;34.80;62.30
31003;DHT22;23051;-6.372;106.786;2023-08-12T08:37:16;34.80;62.40
31003;DHT22;23051;-6.372;106.786;2023-08-12T08:39:21;34.70;62.40
31003;DHT22;23051;-6.372;106.786;2023-08-12T08:41:25;34.70;62.40
31003;DHT22;23051;-6.372;106.786;2023-08-12T08:43:28;34.90;62.30
31003;DHT22;23051;-6.372;106.786;2023-08-12T08:45:31;35.10;61.90
31003;DHT22;23051;-6.372;106.786;2023-08-12T08:47:32;35.20;61.70
31003;DHT22;23051;-6.372;106.786;2023-08-12T08:49:35;35.20;61.60
31003;DHT22;23051;-6.372;106.786;2023-08-12T08:51:37;35.10;61.70
31003;DHT22;23051;-6.372;106.786;2023-08-12T08:53:41;34.80;62.00
31003;DHT22;23051;-6.372;106.786;2023-08-12T08:55:42;34.60;62.60
31003;DHT22;23051;-6.372;106.786;2023-08-12T08:57:43;34.50;62.90
31003;DHT22;23051;-6.372;106.786;2023-08-12T08:59:46;34.40;63.20
31003;DHT22;23051;-6.372;106.786;2023-08-12T09:01:49;34.30;63.40
31003;DHT22;23051;-6.372;106.786;2023-08-12T09:04:03;34.20;63.60
31003;DHT22;23051;-6.372;106.786;2023-08-12T09:06:05;34.10;63.70
31003;DHT22;23051;-6.372;106.786;2023-08-12T09:08:06;34.10;63.90
31003;DHT22;23051;-6.372;106.786;2023-08-12T09:10:11;34.00;64.00
31003;DHT22;23051;-6.372;106.786;2023-08-12T09:12:13;33.90;64.20
31003;DHT22;23051;-6.372;106.786;2023-08-12T09:14:17;33.90;64.20
31003;DHT22;23051;-6.372;106.786;2023-08-12T09:16:21;33.70;64.20
31003;DHT22;23051;-6.372;106.786;2023-08-12T09:18:22;33.70;64.50
31003;DHT22;23051;-6.372;106.786;2023-08-12T09:20:28;33.60;64.60
31003;DHT22;23051;-6.372;106.786;2023-08-12T09:22:32;33.50;64.60
31003;DHT22;23051;-6.372;106.786;2023-08-12T09:24:35;33.50;64.70
31003;DHT22;23051;-6.372;106.786;2023-08-12T09:26:39;33.50;64.80
31003;DHT22;23051;-6.372;106.786;2023-08-12T09:28:45;33.50;65.60
31003;DHT22;23051;-6.372;106.786;2023-08-12T09:30:52;33.40;64.80
31003;DHT22;23051;-6.372;106.786;2023-08-12T09:32:58;33.50;64.80
31003;DHT22;23051;-6.372;106.786;2023-08-12T09:34:58;33.50;64.90
31003;DHT22;23051;-6.372;106.786;2023-08-12T09:37:03;33.50;64.50
31003;DHT22;23051;-6.372;106.786;2023-08-12T09:39:06;33.40;64.60
31003;DHT22;23051;-6.372;106.786;2023-08-12T09:41:09;33.40;64.70
31003;DHT22;23051;-6.372;106.786;2023-08-12T09:43:10;33.40;64.70
31003;DHT22;23051;-6.372;106.786;2023-08-12T09:45:12;33.50;64.60
31003;DHT22;23051;-6.372;106.786;2023-08-12T09:47:13;33.50;64.40
31003;DHT22;23051;-6.372;106.786;2023-08-12T09:49:17;33.60;64.30
31003;DHT22;23051;-6.372;106.786;2023-08-12T09:51:18;33.70;64.00
31003;DHT22;23051;-6.372;106.786;2023-08-12T09:53:21;33.80;63.70
31003;DHT22;23051;-6.372;106.786;2023-08-12T09:55:25;33.90;63.40
31003;DHT22;23051;-6.372;106.786;2023-08-12T09:57:26;33.90;63.20
31003;DHT22;23051;-6.372;106.786;2023-08-12T09:59:31;33.90;63.10
31003;DHT22;23051;-6.372;106.786;2023-08-12T10:01:35;34.00;63.20
31003;DHT22;23051;-6.372;106.786;2023-08-12T10:03:36;34.00;63.20
31003;DHT22;23051;-6.372;106.786;2023-08-12T10:05:37;34.00;63.10
31003;DHT22;23051;-6.372;106.786;2023-08-12T10:07:42;34.00;63.00
31003;DHT22;23051;-6.372;106.786;2023-08-12T10:09:46;33.90;63.10
31003;DHT22;23051;-6.372;106.786;2023-08-12T10:11:48;33.90;63.20
31003;DHT22;23051;-6.372;106.786;2023-08-12T10:13:53;34.00;63.10
31003;DHT22;23051;-6.372;106.786;2023-08-12T10:15:54;34.10;63.10
31003;DHT22;23051;-6.372;106.786;2023-08-12T10:17:56;34.10;62.90
31003;DHT22;23051;-6.372;106.786;2023-08-12T10:20:03;34.10;62.80
31003;DHT22;23051;-6.372;106.786;2023-08-12T10:22:08;34.10;62.80
31003;DHT22;23051;-6.372;106.786;2023-08-12T10:24:10;34.10;62.80
31003;DHT22;23051;-6.372;106.786;2023-08-12T10:26:12;34.10;62.90
31003;DHT22;23051;-6.372;106.786;2023-08-12T10:28:14;34.00;63.10
31003;DHT22;23051;-6.372;106.786;2023-08-12T10:30:19;33.90;63.20
31003;DHT22;23051;-6.372;106.786;2023-08-12T10:32:26;33.80;63.20
31003;DHT22;23051;-6.372;106.786;2023-08-12T10:34:27;33.80;63.50
31003;DHT22;23051;-6.372;106.786;2023-08-12T10:36:28;33.70;63.60
31003;DHT22;23051;-6.372;106.786;2023-08-12T10:38:32;33.50;63.70
31003;DHT22;23051;-6.372;106.786;2023-08-12T10:40:34;33.50;64.00
31003;DHT22;23051;-6.372;106.786;2023-08-12T10:50:55;33.10;64.60
31003;DHT22;23051;-6.372;106.786;2023-08-12T10:52:56;33.10;64.80
31003;DHT22;23051;-6.372;106.786;2023-08-12T10:57:06;33.00;64.80
31003;DHT22;23051;-6.372;106.786;2023-08-12T10:59:11;32.90;65.00
31003;DHT22;23051;-6.372;106.786;2023-08-12T11:01:29;32.80;65.20
31003;DHT22;23051;-6.372;106.786;2023-08-12T11:03:31;32.80;65.40
31003;DHT22;23051;-6.372;106.786;2023-08-12T11:05:38;32.80;65.50
31003;DHT22;23051;-6.372;106.786;2023-08-12T11:09:51;32.90;65.00
31003;DHT22;23051;-6.372;106.786;2023-08-12T11:11:58;32.90;64.80
31003;DHT22;23051;-6.372;106.786;2023-08-12T11:14:02;32.90;64.70
31003;DHT22;23051;-6.372;106.786;2023-08-12T11:16:12;32.80;64.70
31003;DHT22;23051;-6.372;106.786;2023-08-12T11:18:17;32.80;65.00
31003;DHT22;23051;-6.372;106.786;2023-08-12T11:20:21;32.70;65.10
31003;DHT22;23051;-6.372;106.786;2023-08-12T11:22:22;32.70;65.20
31003;DHT22;23051;-6.372;106.786;2023-08-12T11:24:23;32.70;65.20
31003;DHT22;23051;-6.372;106.786;2023-08-12T11:26:24;32.70;65.10
31003;DHT22;23051;-6.372;106.786;2023-08-12T11:28:26;32.70;64.90
31003;DHT22;23051;-6.372;106.786;2023-08-12T11:30:30;32.80;64.80
31003;DHT22;23051;-6.372;106.786;2023-08-12T11:32:34;32.80;64.70
31003;DHT22;23051;-6.372;106.786;2023-08-12T11:34:35;32.80;64.70
31003;DHT22;23051;-6.372;106.786;2023-08-12T11:36:39;32.70;64.90
31003;DHT22;23051;-6.372;106.786;2023-08-12T11:38:40;32.60;65.10
31003;DHT22;23051;-6.372;106.786;2023-08-12T11:40:41;32.50;65.30
31003;DHT22;23051;-6.372;106.786;2023-08-12T11:42:48;32.40;65.50
31003;DHT22;23051;-6.372;106.786;2023-08-12T11:44:52;32.30;65.60
31003;DHT22;23051;-6.372;106.786;2023-08-12T11:46:53;32.30;65.80
31003;DHT22;23051;-6.372;106.786;2023-08-12T11:48:54;32.20;65.80
31003;DHT22;23051;-6.372;106.786;2023-08-12T11:50:56;32.10;66.80
31003;DHT22;23051;-6.372;106.786;2023-08-12T11:52:59;32.00;66.20
31003;DHT22;23051;-6.372;106.786;2023-08-12T11:55:00;31.90;66.40
31003;DHT22;23051;-6.372;106.786;2023-08-12T11:57:01;31.80;66.50
31003;DHT22;23051;-6.372;106.786;2023-08-12T11:59:03;31.80;66.70
31003;DHT22;23051;-6.372;106.786;2023-08-12T12:01:05;31.70;66.80
31003;DHT22;23051;-6.372;106.786;2023-08-12T12:03:09;31.70;66.80
31003;DHT22;23051;-6.372;106.786;2023-08-12T12:05:10;31.70;66.80
31003;DHT22;23051;-6.372;106.786;2023-08-12T12:09:15;31.60;66.80
31003;DHT22;23051;-6.372;106.786;2023-08-12T12:11:20;31.60;66.90
31003;DHT22;23051;-6.372;106.786;2023-08-12T12:13:22;31.60;66.90
31003;DHT22;23051;-6.372;106.786;2023-08-12T12:15:26;31.60;67.00
31003;DHT22;23051;-6.372;106.786;2023-08-12T12:17:29;31.60;66.80
31003;DHT22;23051;-6.372;106.786;2023-08-12T12:19:30;31.60;66.80
31003;DHT22;23051;-6.372;106.786;2023-08-12T12:21:38;31.60;66.80
31003;DHT22;23051;-6.372;106.786;2023-08-12T12:23:39;31.60;66.80
31003;DHT22;23051;-6.372;106.786;2023-08-12T12:25:40;31.60;66.80
31003;DHT22;23051;-6.372;106.786;2023-08-12T12:27:44;31.50;66.70
31003;DHT22;23051;-6.372;106.786;2023-08-12T12:29:46;31.50;66.60
31003;DHT22;23051;-6.372;106.786;2023-08-12T12:31:47;31.60;66.60
31003;DHT22;23051;-6.372;106.786;2023-08-12T12:33:50;31.50;66.60
31003;DHT22;23051;-6.372;106.786;2023-08-12T12:35:51;31.50;66.70
31003;DHT22;23051;-6.372;106.786;2023-08-12T12:37:52;31.50;66.70
31003;DHT22;23051;-6.372;106.786;2023-08-12T12:39:54;31.50;66.70
31003;DHT22;23051;-6.372;106.786;2023-08-12T12:41:55;31.50;66.80
31003;DHT22;23051;-6.372;106.786;2023-08-12T12:44:00;31.50;66.70
31003;DHT22;23051;-6.372;106.786;2023-08-12T12:46:02;31.50;66.60
31003;DHT22;23051;-6.372;106.786;2023-08-12T12:48:04;31.40;66.70
31003;DHT22;23051;-6.372;106.786;2023-08-12T12:50:05;31.40;66.70
31003;DHT22;23051;-6.372;106.786;2023-08-12T12:52:11;31.40;66.60
31003;DHT22;23051;-6.372;106.786;2023-08-12T12:54:17;31.30;66.70
31003;DHT22;23051;-6.372;106.786;2023-08-12T12:56:18;31.30;66.90
31003;DHT22;23051;-6.372;106.786;2023-08-12T12:58:21;31.30;66.90
31003;DHT22;23051;-6.372;106.786;2023-08-12T13:00:23;31.20;66.80
31003;DHT22;23051;-6.372;106.786;2023-08-12T13:02:27;31.20;66.90
31003;DHT22;23051;-6.372;106.786;2023-08-12T13:04:31;31.20;66.90
31003;DHT22;23051;-6.372;106.786;2023-08-12T13:06:34;31.20;66.70
31003;DHT22;23051;-6.372;106.786;2023-08-12T13:08:36;31.20;66.80
31003;DHT22;23051;-6.372;106.786;2023-08-12T13:10:37;31.10;66.90
31003;DHT22;23051;-6.372;106.786;2023-08-12T13:12:38;31.20;66.90
31003;DHT22;23051;-6.372;106.786;2023-08-12T13:14:39;31.20;66.90
31003;DHT22;23051;-6.372;106.786;2023-08-12T13:16:40;31.10;67.00
31003;DHT22;23051;-6.372;106.786;2023-08-12T13:18:42;31.00;67.10
31003;DHT22;23051;-6.372;106.786;2023-08-12T13:20:43;31.00;67.10
31003;DHT22;23051;-6.372;106.786;2023-08-12T13:22:46;31.00;67.20